createdAt,value
2019-04-22T00:01:30.777Z,94506.73
2019-04-22T00:04:03.644Z,94508.05
2019-04-22T00:06:51.700Z,94511.15
2019-04-22T00:09:28.546Z,94510.11
2019-04-22T00:11:53.133Z,94509.05
2019-04-22T00:14:17.899Z,94509.16
2019-04-22T00:19:32.008Z,94510.04
2019-04-22T00:22:00.029Z,94509.20
2019-04-22T00:24:26.721Z,94511.12
2019-04-22T00:26:59.963Z,94503.88
2019-04-22T00:29:42.491Z,94501.20
2019-04-22T00:31:59.008Z,94499.52
2019-04-22T00:34:27.066Z,94502.74
2019-04-22T00:37:01.011Z,94501.08
2019-04-22T00:39:37.339Z,94500.31
2019-04-22T00:42:06.103Z,94498.55
2019-04-22T00:47:07.348Z,94492.55
2019-04-22T00:50:06.672Z,94493.66
2019-04-22T00:54:39.619Z,94485.96
2019-04-22T00:57:12.073Z,94494.77
2019-04-22T00:59:40.408Z,94483.30
2019-04-22T01:02:08.810Z,94476.17
2019-04-22T01:04:39.299Z,94474.72
2019-04-22T01:07:09.458Z,94471.16
2019-04-22T01:09:40.106Z,94469.38
2019-04-22T01:14:41.385Z,94475.19
2019-04-22T01:17:09.328Z,94472.20
2019-04-22T01:19:46.606Z,94477.90
2019-04-22T01:22:17.531Z,94475.61
2019-04-22T01:24:42.153Z,94480.64
2019-04-22T01:27:09.128Z,94481.42
2019-04-22T01:29:39.712Z,94476.52
2019-04-22T01:31:56.504Z,94483.64
2019-04-22T01:34:40.456Z,94486.43
2019-04-22T01:37:14.069Z,94482.61
2019-04-22T01:39:50.460Z,94480.30
2019-04-22T01:42:15.750Z,94480.30
2019-04-22T01:44:50.878Z,94475.77
2019-04-22T01:47:25.087Z,94475.77
2019-04-22T01:49:57.076Z,94474.91
2019-04-22T01:52:23.711Z,94474.91
2019-04-22T01:54:54.673Z,94475.84
2019-04-22T01:57:27.043Z,94469.67
2019-04-22T01:59:45.842Z,94477.19
2019-04-22T02:02:30.897Z,94466.83
2019-04-22T02:04:59.870Z,94470.17
2019-04-22T02:07:32.099Z,94470.17
2019-04-22T02:09:57.949Z,94459.72
2019-04-22T02:12:30.808Z,94460.77
2019-04-22T02:14:59.499Z,94460.77
2019-04-22T02:17:33.359Z,94465.52
2019-04-22T02:20:07.458Z,94467.27
2019-04-22T02:22:41.760Z,94459.84
2019-04-22T02:24:58.841Z,94466.48
2019-04-22T02:27:40.407Z,94457.23
2019-04-22T02:29:58.265Z,94457.23
2019-04-22T02:33:03.870Z,94454.77
2019-04-22T02:37:35.907Z,94465.01
2019-04-22T02:42:51.841Z,94452.95
2019-04-22T02:44:58.737Z,94464.25
2019-04-22T02:47:36.219Z,94463.23
2019-04-22T02:50:06.469Z,94461.23
2019-04-22T02:55:10.752Z,94452.79
2019-04-22T03:00:19.469Z,94440.91
2019-04-22T03:02:50.653Z,94439.73
2019-04-22T03:07:42.460Z,94444.08
2019-04-22T03:10:29.468Z,94445.94
2019-04-22T03:12:37.041Z,94446.88
2019-04-22T03:15:07.745Z,94447.76
2019-04-22T03:20:11.109Z,94456.12
2019-04-22T03:27:56.396Z,94459.06
2019-04-22T03:33:05.524Z,94459.28
2019-04-22T03:43:02.537Z,94468.09
2019-04-22T03:52:56.435Z,94468.59
2019-04-22T03:55:26.676Z,94471.27
2019-04-22T04:00:25.066Z,94468.80
2019-04-22T04:05:35.649Z,94468.61
2019-04-22T04:07:57.709Z,94463.03
2019-04-22T04:12:56.223Z,94469.73
2019-04-22T04:15:23.670Z,94478.67
2019-04-22T04:17:56.802Z,94478.09
2019-04-22T04:25:37.388Z,94476.41
2019-04-22T04:30:30.281Z,94484.65
2019-04-22T04:32:58.897Z,94482.06
2019-04-22T04:35:30.514Z,94483.46
2019-04-22T04:43:05.536Z,94486.48
2019-04-22T04:45:41.152Z,94485.88
2019-04-22T04:47:54.852Z,94487.52
2019-04-22T04:50:26.751Z,94487.52
2019-04-22T04:53:09.759Z,94490.70
2019-04-22T04:58:13.541Z,94548.77
2019-04-22T05:03:02.609Z,94493.65
2019-04-22T05:08:00.227Z,94478.21
2019-04-22T05:10:47.493Z,94390.23
2019-04-22T05:13:10.348Z,94475.94
2019-04-22T05:23:00.688Z,94472.72
2019-04-22T05:25:28.349Z,94472.72
2019-04-22T05:27:57.653Z,94482.27
2019-04-22T05:33:18.987Z,94488.41
2019-04-22T05:38:04.171Z,94493.39
2019-04-22T05:40:40.838Z,94492.97
2019-04-22T05:43:03.424Z,94499.11
2019-04-22T05:45:34.685Z,94494.43
2019-04-22T05:48:02.904Z,94492.51
2019-04-22T05:50:29.519Z,94497.84
2019-04-22T05:55:36.073Z,94493.91
2019-04-22T06:01:05.735Z,94487.41
2019-04-22T06:03:20.854Z,94498.06
2019-04-22T06:08:13.347Z,94496.14
2019-04-22T06:10:45.396Z,94497.67
2019-04-22T06:13:04.428Z,94496.31
2019-04-22T06:15:37.569Z,94502.77
2019-04-22T06:23:25.648Z,94497.95
2019-04-22T06:25:59.070Z,94499.59
2019-04-22T06:28:35.233Z,94506.95
2019-04-22T06:30:57.520Z,94500.07
2019-04-22T06:33:26.121Z,94502.27
2019-04-22T06:35:56.369Z,94498.82
2019-04-22T06:40:54.042Z,94493.06
2019-04-22T06:43:22.433Z,94493.05
2019-04-22T06:45:51.775Z,94496.38
2019-04-22T06:48:33.313Z,94497.83
2019-04-22T06:50:56.809Z,94489.28
2019-04-22T06:53:31.155Z,94488.55
2019-04-22T06:56:12.082Z,94487.83
2019-04-22T06:58:30.337Z,94490.98
2019-04-22T07:01:19.341Z,94489.58
2019-04-22T07:05:59.653Z,94492.92
2019-04-22T07:09:03.753Z,94492.80
2019-04-22T07:10:56.302Z,94493.02
2019-04-22T07:13:34.398Z,94495.36
2019-04-22T07:16:00.335Z,94486.88
2019-04-22T07:18:38.630Z,94492.40
2019-04-22T07:21:01.510Z,94489.94
2019-04-22T07:23:34.937Z,94490.58
2019-04-22T07:25:58.421Z,94488.33
2019-04-22T07:28:22.957Z,94491.24
2019-04-22T07:31:08.066Z,94493.30
2019-04-22T07:36:27.755Z,94494.09
2019-04-22T07:38:31.367Z,94492.16
2019-04-22T07:40:59.351Z,94481.03
2019-04-22T07:43:56.358Z,94479.95
2019-04-22T07:46:10.857Z,94481.70
2019-04-22T07:48:38.180Z,94474.09
2019-04-22T07:51:07.700Z,94483.86
2019-04-22T07:53:34.245Z,94486.03
2019-04-22T07:56:05.343Z,94480.09
2019-04-22T07:58:39.628Z,94473.45
2019-04-22T08:01:08.830Z,94476.06
2019-04-22T08:03:47.830Z,94475.37
2019-04-22T08:08:38.365Z,94473.59
2019-04-22T08:11:23.810Z,94472.76
2019-04-22T08:16:10.766Z,94471.48
2019-04-22T08:18:39.150Z,94462.73
2019-04-22T08:21:09.322Z,94460.95
2019-04-22T08:23:46.522Z,94457.00
2019-04-22T08:26:04.860Z,94452.30
2019-04-22T08:28:47.810Z,94458.30
2019-04-22T08:31:14.917Z,94447.30
2019-04-22T08:33:46.581Z,94454.30
2019-04-22T08:36:18.365Z,94452.70
2019-04-22T08:41:28.426Z,94453.63
2019-04-22T08:43:57.820Z,94445.94
2019-04-22T08:46:27.378Z,94441.45
2019-04-22T08:48:57.661Z,94443.53
2019-04-22T08:51:25.318Z,94439.67
2019-04-22T08:53:59.813Z,94440.42
2019-04-22T08:59:03.103Z,94435.69
2019-04-22T09:01:27.056Z,94436.37
2019-04-22T09:03:58.594Z,94437.46
2019-04-22T09:09:00.899Z,94430.70
2019-04-22T09:11:35.583Z,94421.72
2019-04-22T09:14:02.981Z,94419.33
2019-04-22T09:16:33.272Z,94425.55
2019-04-22T09:18:59.260Z,94423.98
2019-04-22T09:24:06.917Z,94427.86
2019-04-22T09:26:36.092Z,94415.53
2019-04-22T09:29:04.987Z,94418.47
2019-04-22T09:31:28.980Z,94418.83
2019-04-22T09:33:59.081Z,94410.09
2019-04-22T09:36:44.309Z,94406.73
2019-04-22T09:39:00.706Z,94398.81
2019-04-22T09:41:31.862Z,94393.97
2019-04-22T09:44:02.394Z,94395.17
2019-04-22T09:46:36.829Z,94389.80
2019-04-22T09:49:06.509Z,94386.86
2019-04-22T09:51:36.873Z,94387.62
2019-04-22T09:54:17.945Z,94393.55
2019-04-22T09:56:37.445Z,94393.10
2019-04-22T09:59:04.651Z,94383.14
2019-04-22T10:01:38.524Z,94379.32
2019-04-22T10:04:08.290Z,94380.31
2019-04-22T10:11:37.631Z,94372.28
2019-04-22T10:14:28.437Z,94376.02
2019-04-22T10:19:11.155Z,94363.72
2019-04-22T10:21:46.327Z,94358.48
2019-04-22T10:24:09.090Z,94357.17
2019-04-22T10:29:14.005Z,94351.78
2019-04-22T10:31:46.608Z,94354.69
2019-04-22T10:34:02.680Z,94347.66
2019-04-22T10:36:17.528Z,94349.94
2019-04-22T10:38:46.592Z,94347.16
2019-04-22T10:41:16.553Z,94340.22
2019-04-22T10:43:47.626Z,94338.27
2019-04-22T10:46:16.287Z,94334.22
2019-04-22T10:48:46.290Z,94324.16
2019-04-22T10:51:16.799Z,94323.59
2019-04-22T10:53:45.528Z,94314.10
2019-04-22T10:56:14.880Z,94317.52
2019-04-22T10:58:44.659Z,94313.01
2019-04-22T11:01:13.694Z,94305.06
2019-04-22T11:03:43.341Z,94298.22
2019-04-22T11:06:12.105Z,94297.30
2019-04-22T11:08:50.048Z,94302.14
2019-04-22T11:11:25.943Z,94298.59
2019-04-22T11:13:42.043Z,94290.55
2019-04-22T11:16:11.729Z,94294.98
2019-04-22T11:18:41.264Z,94293.89
2019-04-22T11:21:09.955Z,94294.41
2019-04-22T11:23:38.723Z,94289.86
2019-04-22T11:26:08.181Z,94280.36
2019-04-22T11:28:38.060Z,94279.64
2019-04-22T11:31:08.146Z,94286.66
2019-04-22T11:33:36.831Z,94289.45
2019-04-22T11:36:06.180Z,94280.00
2019-04-22T11:38:40.374Z,94285.34
2019-04-22T11:41:07.103Z,94270.88
2019-04-22T11:43:36.209Z,94267.47
2019-04-22T11:46:05.415Z,94263.89
2019-04-22T11:48:34.137Z,94264.11
2019-04-22T11:51:04.149Z,94264.02
2019-04-22T11:53:34.432Z,94252.48
2019-04-22T11:56:04.638Z,94255.20
2019-04-22T11:58:33.874Z,94251.05
2019-04-22T12:01:06.604Z,94252.98
2019-04-22T12:03:35.772Z,94246.17
2019-04-22T12:06:05.935Z,94247.20
2019-04-22T12:08:35.729Z,94245.39
2019-04-22T12:11:06.029Z,94244.19
2019-04-22T12:13:35.865Z,94243.96
2019-04-22T12:16:05.313Z,94236.98
2019-04-22T12:18:35.350Z,94233.80
2019-04-22T12:21:05.308Z,94235.31
2019-04-22T12:23:34.937Z,94232.14
2019-04-22T12:26:09.184Z,94233.89
2019-04-22T12:28:35.133Z,94224.78
2019-04-22T12:31:03.906Z,94226.08
2019-04-22T12:33:32.490Z,94223.54
2019-04-22T12:36:02.364Z,94223.80
2019-04-22T12:38:31.511Z,94224.95
2019-04-22T12:41:04.362Z,94228.66
2019-04-22T12:43:31.854Z,94222.86
2019-04-22T12:46:02.119Z,94217.78
2019-04-22T12:50:32.917Z,94214.45
2019-04-22T12:53:04.776Z,94217.70
2019-04-22T12:55:30.175Z,94218.70
2019-04-22T12:58:00.925Z,94211.61
2019-04-22T13:00:30.229Z,94210.88
2019-04-22T13:02:58.968Z,94207.98
2019-04-22T13:05:29.108Z,94204.55
2019-04-22T13:07:57.909Z,94212.89
2019-04-22T13:10:40.069Z,94207.84
2019-04-22T13:12:56.991Z,94199.75
2019-04-22T13:15:28.950Z,94191.15
2019-04-22T13:18:05.996Z,94195.55
2019-04-22T13:20:28.259Z,94186.30
2019-04-22T13:22:57.087Z,94178.63
2019-04-22T13:25:28.051Z,94170.09
2019-04-22T13:27:57.486Z,94179.84
2019-04-22T13:30:28.282Z,94173.28
2019-04-22T13:32:57.043Z,94173.19
2019-04-22T13:35:26.208Z,94165.53
2019-04-22T13:37:57.309Z,94169.99
2019-04-22T13:40:26.044Z,94172.78
2019-04-22T13:42:55.555Z,94173.12
2019-04-22T13:48:11.492Z,94159.13
2019-04-22T13:53:40.954Z,94159.18
2019-04-22T13:55:53.250Z,94165.61
2019-04-22T13:58:08.687Z,94164.41
2019-04-22T14:00:34.530Z,94166.70
2019-04-22T14:03:22.399Z,94172.44
2019-04-22T14:05:53.036Z,94170.69
2019-04-22T14:08:22.989Z,94167.30
2019-04-22T14:10:52.489Z,94179.38
2019-04-22T14:13:21.695Z,94172.28
2019-04-22T14:15:50.982Z,94169.74
2019-04-22T14:18:21.061Z,94174.50
2019-04-22T14:20:51.156Z,94182.04
2019-04-22T14:23:20.513Z,94179.04
2019-04-22T14:25:50.682Z,94173.31
2019-04-22T14:28:21.991Z,94177.30
2019-04-22T14:30:50.602Z,94174.70
2019-04-22T14:33:20.291Z,94179.09
2019-04-22T14:35:49.939Z,94169.59
2019-04-22T14:38:18.664Z,94173.81
2019-04-22T14:40:48.185Z,94169.91
2019-04-22T14:43:47.792Z,94167.61
2019-04-22T14:46:14.813Z,94169.12
2019-04-22T14:48:46.449Z,94167.20
2019-04-22T14:51:07.144Z,94170.80
2019-04-22T14:53:41.066Z,94170.34
2019-04-22T14:55:50.363Z,94159.72
2019-04-22T14:58:19.253Z,94154.13
2019-04-22T15:00:49.185Z,94144.20
2019-04-22T15:03:19.654Z,94152.25
2019-04-22T15:05:48.340Z,94163.52
2019-04-22T15:08:17.336Z,94151.81
2019-04-22T15:10:46.171Z,94158.59
2019-04-22T15:13:15.565Z,94156.37
2019-04-22T15:16:03.053Z,94153.75
2019-04-22T15:18:39.725Z,94141.13
2019-04-22T15:21:16.565Z,94145.99
2019-04-22T15:23:46.811Z,94146.74
2019-04-22T15:26:16.647Z,94154.13
2019-04-22T15:28:45.355Z,94151.16
2019-04-22T15:31:15.200Z,94148.91
2019-04-22T15:33:48.016Z,94148.64
2019-04-22T15:36:14.235Z,94156.31
2019-04-22T15:38:42.890Z,94145.44
2019-04-22T15:41:12.512Z,94142.11
2019-04-22T15:43:41.609Z,94139.41
2019-04-22T15:46:11.626Z,94135.58
2019-04-22T15:48:42.054Z,94131.30
2019-04-22T15:51:11.059Z,94127.64
2019-04-22T15:53:39.916Z,94135.34
2019-04-22T15:56:08.725Z,94125.57
2019-04-22T15:58:37.600Z,94124.55
2019-04-22T16:01:15.114Z,94121.36
2019-04-22T16:03:36.926Z,94125.31
2019-04-22T16:06:06.112Z,94120.37
2019-04-22T16:08:37.332Z,94127.50
2019-04-22T16:11:06.149Z,94136.36
2019-04-22T16:13:38.046Z,94125.75
2019-04-22T16:16:06.774Z,94120.88
2019-04-22T16:18:36.124Z,94120.50
2019-04-22T16:21:05.016Z,94114.97
2019-04-22T16:23:36.503Z,94121.88
2019-04-22T16:26:07.601Z,94114.58
2019-04-22T16:28:37.649Z,94113.78
2019-04-22T16:31:07.221Z,94117.63
2019-04-22T16:33:39.681Z,94118.02
2019-04-22T16:36:07.172Z,94112.67
2019-04-22T16:38:37.324Z,94109.53
2019-04-22T16:41:06.637Z,94107.20
2019-04-22T16:43:36.465Z,94117.42
2019-04-22T16:46:05.671Z,94112.07
2019-04-22T16:48:35.861Z,94123.07
2019-04-22T16:51:04.506Z,94123.03
2019-04-22T16:53:33.132Z,94122.87
2019-04-22T16:56:02.745Z,94135.17
2019-04-22T16:58:32.609Z,94146.43
2019-04-22T17:01:02.814Z,94139.56
2019-04-22T17:03:40.521Z,94143.97
2019-04-22T17:06:11.801Z,94135.34
2019-04-22T17:08:40.575Z,94140.11
2019-04-22T17:11:09.795Z,94134.65
2019-04-22T17:13:40.032Z,94140.31
2019-04-22T17:16:09.829Z,94136.72
2019-04-22T17:18:39.394Z,94138.50
2019-04-22T17:21:10.443Z,94127.52
2019-04-22T17:23:38.616Z,94135.80
2019-04-22T17:26:08.424Z,94135.16
2019-04-22T17:28:37.483Z,94135.34
2019-04-22T17:31:06.654Z,94137.77
2019-04-22T17:33:36.999Z,94125.94
2019-04-22T17:36:07.671Z,94119.73
2019-04-22T17:38:45.403Z,94137.84
2019-04-22T17:41:21.172Z,94122.95
2019-04-22T17:44:02.149Z,94139.14
2019-04-22T17:46:40.163Z,94134.92
2019-04-22T17:49:41.767Z,94138.20
2019-04-22T17:54:50.294Z,94136.19
2019-04-22T17:57:21.884Z,94139.94
2019-04-22T17:59:53.500Z,94158.13
2019-04-22T18:02:23.887Z,94149.23
2019-04-22T18:04:45.404Z,94156.97
2019-04-22T18:07:29.645Z,94169.97
2019-04-22T18:12:35.734Z,94171.96
2019-04-22T18:14:59.332Z,94158.84
2019-04-22T18:17:32.399Z,94175.25
2019-04-22T18:19:54.594Z,94172.00
2019-04-22T18:22:21.854Z,94168.84
2019-04-22T18:24:55.970Z,94172.42
2019-04-22T18:27:38.871Z,94197.08
2019-04-22T18:29:59.143Z,94199.95
2019-04-22T18:32:21.777Z,94214.10
2019-04-22T18:34:51.154Z,94196.22
2019-04-22T18:37:25.198Z,94190.03
2019-04-22T18:40:02.216Z,94189.05
2019-04-22T18:42:27.123Z,94203.13
2019-04-22T18:45:21.632Z,94206.84
2019-04-22T18:47:24.893Z,94211.30
2019-04-22T18:49:56.678Z,94215.06
2019-04-22T18:52:47.003Z,94224.67
2019-04-22T18:55:22.628Z,94224.13
2019-04-22T18:58:02.646Z,94242.12
2019-04-22T19:00:23.308Z,94247.33
2019-04-22T19:02:59.363Z,94255.41
2019-04-22T19:05:40.093Z,94248.64
2019-04-22T19:15:54.224Z,94252.80
2019-04-22T19:18:24.539Z,94266.38
2019-04-22T19:20:52.006Z,94266.98
2019-04-22T19:23:25.842Z,94268.38
2019-04-22T19:25:42.151Z,94265.88
2019-04-22T19:28:23.863Z,94270.30
2019-04-22T19:30:56.345Z,94280.84
2019-04-22T19:33:23.959Z,94286.57
2019-04-22T19:35:49.120Z,94302.46
2019-04-22T19:38:15.618Z,94308.25
2019-04-22T19:41:03.130Z,94312.97
2019-04-22T19:43:22.925Z,94317.88
2019-04-22T19:45:55.071Z,94330.37
2019-04-22T19:48:32.958Z,94333.27
2019-04-22T19:50:58.934Z,94338.19
2019-04-22T19:53:29.693Z,94330.27
2019-04-22T19:55:49.737Z,94333.18
2019-04-22T19:58:20.149Z,94344.83
2019-04-22T20:00:52.026Z,94355.04
2019-04-22T20:03:42.684Z,94352.59
2019-04-22T20:06:09.980Z,94351.41
2019-04-22T20:08:45.966Z,94376.56
2019-04-22T20:11:17.050Z,94374.44
2019-04-22T20:13:42.849Z,94373.18
2019-04-22T20:16:03.455Z,94375.02
2019-04-22T20:18:50.210Z,94367.05
2019-04-22T20:21:17.957Z,94361.63
2019-04-22T20:23:38.297Z,94378.08
2019-04-22T20:26:07.537Z,94380.50
2019-04-22T20:28:51.379Z,94373.60
2019-04-22T20:31:14.129Z,94373.55
2019-04-22T20:33:51.375Z,94379.57
2019-04-22T20:36:26.911Z,94375.63
2019-04-22T20:38:46.648Z,94385.50
2019-04-22T20:41:13.537Z,94392.01
2019-04-22T20:43:52.810Z,94394.80
2019-04-22T20:46:19.032Z,94391.91
2019-04-22T20:48:50.270Z,94399.46
2019-04-22T20:51:14.008Z,94398.56
2019-04-22T20:53:48.001Z,94396.49
2019-04-22T20:56:14.557Z,94398.16
2019-04-22T20:58:54.695Z,94405.89
2019-04-22T21:01:11.672Z,94413.34
2019-04-22T21:03:40.792Z,94405.73
2019-04-22T21:06:19.187Z,94401.55
2019-04-22T21:08:57.994Z,94414.83
2019-04-22T21:11:19.338Z,94418.68
2019-04-22T21:13:48.184Z,94423.47
2019-04-22T21:16:21.599Z,94428.86
2019-04-22T21:18:47.340Z,94433.33
2019-04-22T21:21:25.164Z,94435.84
2019-04-22T21:23:47.665Z,94442.02
2019-04-22T21:26:27.450Z,94441.50
2019-04-22T21:28:53.756Z,94440.94
2019-04-22T21:31:32.368Z,94433.33
2019-04-22T21:33:50.308Z,94440.89
2019-04-22T21:36:31.263Z,94443.47
2019-04-22T21:38:53.215Z,94443.56
2019-04-22T21:41:20.332Z,94451.87
2019-04-22T21:43:53.661Z,94451.73
2019-04-22T21:46:27.907Z,94451.55
2019-04-22T21:49:02.900Z,94444.27
2019-04-22T21:51:34.535Z,94449.33
2019-04-22T21:54:04.245Z,94451.26
2019-04-22T21:56:41.151Z,94455.20
2019-04-22T21:59:07.851Z,94457.32
2019-04-22T22:01:51.231Z,94459.83
2019-04-22T22:04:15.378Z,94468.59
2019-04-22T22:06:37.270Z,94475.05
2019-04-22T22:09:15.538Z,94478.02
2019-04-22T22:11:38.632Z,94475.52
2019-04-22T22:14:11.736Z,94480.29
2019-04-22T22:16:37.490Z,94477.95
2019-04-22T22:19:11.703Z,94484.30
2019-04-22T22:21:55.454Z,94475.56
2019-04-22T22:24:18.844Z,94478.09
2019-04-22T22:26:46.552Z,94479.00
2019-04-22T22:29:24.656Z,94485.28
2019-04-22T22:31:47.011Z,94478.44
2019-04-22T22:34:17.635Z,94479.44
2019-04-22T22:36:40.850Z,94479.44
2019-04-22T22:39:07.556Z,94480.06
2019-04-22T22:41:26.053Z,94477.37
2019-04-22T22:44:03.278Z,94481.59
2019-04-22T22:46:34.163Z,94482.25
2019-04-22T22:49:18.558Z,94470.19
2019-04-22T22:52:26.174Z,94473.69
2019-04-22T22:54:17.593Z,94473.51
2019-04-22T22:56:55.736Z,94475.55
2019-04-22T22:59:18.117Z,94474.97
2019-04-22T23:04:23.152Z,94476.78
2019-04-22T23:06:53.359Z,94484.02
2019-04-22T23:09:22.501Z,94476.66
2019-04-22T23:12:04.080Z,94485.39
2019-04-22T23:14:21.959Z,94491.25
2019-04-22T23:16:39.776Z,94486.28
2019-04-22T23:19:06.669Z,94482.51
2019-04-22T23:21:39.696Z,94490.36
2019-04-22T23:24:21.286Z,94497.44
2019-04-22T23:26:54.057Z,94496.49
2019-04-22T23:29:25.376Z,94498.13
2019-04-22T23:32:01.668Z,94490.27
2019-04-22T23:34:32.841Z,94489.98
2019-04-22T23:37:18.800Z,94492.66
2019-04-22T23:40:01.677Z,94484.29
2019-04-22T23:42:39.773Z,94492.90
2019-04-22T23:44:56.315Z,94508.25
2019-04-22T23:47:21.090Z,94507.05
2019-04-22T23:49:56.087Z,94510.48
2019-04-22T23:52:40.271Z,94511.73
2019-04-22T23:55:11.525Z,94506.96
2019-04-22T23:57:42.172Z,94510.88
